createdAt,value
2018-08-28T00:00:06.168Z,48.20
2018-08-28T00:02:34.670Z,48.90
2018-08-28T00:05:03.416Z,48.50
2018-08-28T00:07:31.935Z,48.80
2018-08-28T00:10:00.371Z,48.70
2018-08-28T00:12:28.763Z,48.80
2018-08-28T00:14:57.291Z,49.00
2018-08-28T00:17:25.666Z,49.20
2018-08-28T00:19:54.117Z,49.10
2018-08-28T00:22:22.530Z,49.20
2018-08-28T00:24:51.139Z,49.20
2018-08-28T00:27:19.811Z,49.10
2018-08-28T00:29:48.222Z,48.90
2018-08-28T00:32:16.638Z,49.20
2018-08-28T00:34:45.106Z,49.50
2018-08-28T00:37:13.487Z,49.70
2018-08-28T00:39:41.839Z,49.40
2018-08-28T00:42:10.208Z,50.30
2018-08-28T00:44:38.671Z,51.10
2018-08-28T00:47:07.095Z,50.60
2018-08-28T00:49:35.551Z,50.20
2018-08-28T00:52:04.062Z,50.20
2018-08-28T00:54:32.251Z,50.30
2018-08-28T00:57:00.754Z,50.30
2018-08-28T00:59:29.247Z,50.60
2018-08-28T01:01:57.998Z,50.60
2018-08-28T01:04:26.345Z,50.70
2018-08-28T01:06:55.155Z,50.60
2018-08-28T01:09:23.461Z,50.60
2018-08-28T01:11:52.335Z,50.60
2018-08-28T01:14:20.739Z,50.70
2018-08-28T01:16:49.182Z,50.80
2018-08-28T01:19:17.651Z,50.70
2018-08-28T01:21:45.966Z,50.90
2018-08-28T01:24:14.322Z,51.00
2018-08-28T01:26:42.787Z,51.20
2018-08-28T01:29:11.164Z,51.30
2018-08-28T01:31:39.596Z,51.40
2018-08-28T01:34:08.022Z,51.30
2018-08-28T01:36:36.478Z,51.40
2018-08-28T01:39:05.578Z,51.50
2018-08-28T01:41:34.221Z,51.80
2018-08-28T01:44:02.612Z,52.00
2018-08-28T01:46:31.006Z,51.80
2018-08-28T01:48:59.515Z,51.90
2018-08-28T01:51:28.171Z,51.70
2018-08-28T01:53:56.541Z,51.80
2018-08-28T01:56:24.891Z,52.10
2018-08-28T01:58:53.334Z,52.20
2018-08-28T02:01:21.719Z,51.80
2018-08-28T02:03:50.087Z,52.40
2018-08-28T02:06:18.483Z,52.60
2018-08-28T02:08:47.133Z,52.30
2018-08-28T02:11:15.863Z,52.60
2018-08-28T02:13:44.312Z,52.60
2018-08-28T02:16:12.935Z,52.30
2018-08-28T02:18:41.488Z,52.40
2018-08-28T02:21:11.807Z,52.90
2018-08-28T02:23:40.304Z,52.90
2018-08-28T02:26:10.611Z,53.00
2018-08-28T02:28:38.927Z,53.10
2018-08-28T02:31:07.470Z,53.30
2018-08-28T02:33:36.105Z,53.30
2018-08-28T02:36:04.638Z,53.30
2018-08-28T02:38:33.242Z,53.30
2018-08-28T02:41:02.011Z,53.30
2018-08-28T02:43:30.620Z,53.30
2018-08-28T02:45:58.974Z,53.40
2018-08-28T02:48:27.742Z,53.40
2018-08-28T02:50:56.363Z,53.20
2018-08-28T02:53:25.064Z,53.20
2018-08-28T02:55:53.379Z,52.80
2018-08-28T02:58:21.927Z,52.90
2018-08-28T03:00:50.413Z,52.80
2018-08-28T03:03:19.028Z,52.50
2018-08-28T03:05:47.331Z,52.30
2018-08-28T03:08:15.969Z,52.20
2018-08-28T03:10:44.719Z,52.50
2018-08-28T03:13:13.546Z,53.00
2018-08-28T03:15:42.428Z,53.00
2018-08-28T03:18:11.004Z,53.00
2018-08-28T03:20:39.630Z,53.30
2018-08-28T03:23:08.514Z,53.40
2018-08-28T03:25:37.311Z,53.40
2018-08-28T03:28:05.971Z,53.40
2018-08-28T03:30:34.807Z,53.50
2018-08-28T03:33:03.210Z,53.30
2018-08-28T03:35:31.565Z,53.40
2018-08-28T03:37:59.923Z,53.60
2018-08-28T03:40:28.343Z,54.10
2018-08-28T03:42:56.650Z,54.10
2018-08-28T03:45:25.095Z,54.30
2018-08-28T03:47:53.442Z,54.60
2018-08-28T03:50:22.254Z,54.50
2018-08-28T03:52:50.644Z,54.60
2018-08-28T03:55:19.571Z,54.70
2018-08-28T03:57:47.954Z,54.80
2018-08-28T04:00:16.237Z,55.30
2018-08-28T04:02:44.558Z,55.20
2018-08-28T04:05:12.988Z,55.30
2018-08-28T04:07:41.610Z,55.70
2018-08-28T04:10:10.200Z,55.40
2018-08-28T04:12:38.627Z,55.40
2018-08-28T04:15:07.203Z,55.70
2018-08-28T04:17:41.880Z,55.60
2018-08-28T04:20:10.330Z,55.60
2018-08-28T04:22:39.112Z,55.50
2018-08-28T04:25:07.543Z,55.80
2018-08-28T04:27:36.279Z,55.90
2018-08-28T04:30:05.109Z,55.40
2018-08-28T04:32:33.615Z,55.80
2018-08-28T04:35:02.343Z,55.40
2018-08-28T04:37:30.954Z,55.80
2018-08-28T04:39:59.787Z,56.10
2018-08-28T04:42:28.171Z,55.70
2018-08-28T04:44:56.846Z,55.70
2018-08-28T04:47:25.631Z,56.10
2018-08-28T04:49:54.655Z,56.10
2018-08-28T04:52:22.918Z,55.90
2018-08-28T04:54:51.616Z,56.20
2018-08-28T04:57:20.302Z,56.10
2018-08-28T04:59:48.990Z,56.20
2018-08-28T05:02:17.818Z,56.80
2018-08-28T05:04:46.214Z,56.80
2018-08-28T05:07:15.051Z,56.70
2018-08-28T05:09:43.653Z,56.60
2018-08-28T05:12:12.055Z,56.90
2018-08-28T05:14:40.719Z,56.70
2018-08-28T05:17:09.072Z,57.20
2018-08-28T05:19:37.608Z,57.50
2018-08-28T05:22:06.147Z,57.60
2018-08-28T05:24:34.779Z,57.90
2018-08-28T05:27:03.539Z,58.00
2018-08-28T05:29:31.937Z,58.20
2018-08-28T05:32:00.354Z,58.20
2018-08-28T05:34:28.835Z,58.20
2018-08-28T05:36:57.258Z,58.30
2018-08-28T05:39:25.955Z,58.90
2018-08-28T05:41:54.418Z,59.20
2018-08-28T05:44:23.235Z,59.50
2018-08-28T05:46:51.854Z,59.90
2018-08-28T05:49:20.413Z,59.20
2018-08-28T05:51:49.107Z,60.20
2018-08-28T05:54:17.910Z,60.40
2018-08-28T05:56:46.265Z,60.50
2018-08-28T05:59:14.881Z,61.00
2018-08-28T06:01:43.313Z,60.40
2018-08-28T06:04:12.130Z,59.90
2018-08-28T06:06:40.837Z,60.60
2018-08-28T06:09:09.271Z,60.70
2018-08-28T06:11:37.811Z,60.20
2018-08-28T06:14:06.558Z,61.60
2018-08-28T06:16:35.268Z,60.90
2018-08-28T06:19:03.671Z,61.20
2018-08-28T06:21:32.054Z,62.30
2018-08-28T06:24:00.413Z,62.40
2018-08-28T06:26:28.941Z,62.20
2018-08-28T06:28:57.235Z,62.20
2018-08-28T06:31:25.576Z,60.90
2018-08-28T06:33:54.504Z,60.90
2018-08-28T06:36:23.139Z,61.50
2018-08-28T06:38:51.719Z,61.30
2018-08-28T06:41:20.061Z,61.90
2018-08-28T06:43:48.799Z,61.70
2018-08-28T06:46:17.091Z,63.40
2018-08-28T06:48:45.486Z,62.80
2018-08-28T06:51:14.866Z,62.30
2018-08-28T06:53:43.365Z,60.90
2018-08-28T06:56:13.761Z,60.60
2018-08-28T06:58:42.274Z,59.30
2018-08-28T07:01:13.799Z,58.70
2018-08-28T07:03:42.281Z,58.80
2018-08-28T07:06:12.690Z,58.00
2018-08-28T07:08:41.227Z,59.00
2018-08-28T07:11:14.228Z,59.80
2018-08-28T07:13:42.600Z,59.60
2018-08-28T07:16:13.110Z,58.90
2018-08-28T07:18:41.518Z,58.10
2018-08-28T07:21:12.234Z,57.90
2018-08-28T07:23:40.501Z,57.20
2018-08-28T07:26:09.022Z,57.50
2018-08-28T07:28:37.354Z,57.50
2018-08-28T07:31:05.729Z,58.60
2018-08-28T07:33:34.416Z,58.90
2018-08-28T07:36:02.825Z,59.50
2018-08-28T07:38:31.547Z,59.60
2018-08-28T07:41:00.014Z,58.10
2018-08-28T07:43:28.233Z,57.80
2018-08-28T07:45:56.875Z,56.60
2018-08-28T07:48:25.495Z,55.90
2018-08-28T07:50:54.119Z,56.80
2018-08-28T07:53:22.897Z,56.80
2018-08-28T07:55:51.218Z,56.70
2018-08-28T07:58:19.652Z,57.50
2018-08-28T08:00:48.458Z,54.70
2018-08-28T08:03:22.337Z,54.50
2018-08-28T08:05:51.809Z,54.60
2018-08-28T08:08:20.502Z,54.40
2018-08-28T08:10:49.002Z,54.20
2018-08-28T08:13:17.740Z,52.40
2018-08-28T08:15:46.358Z,52.60
2018-08-28T08:18:15.135Z,54.20
2018-08-28T08:20:44.111Z,54.40
2018-08-28T08:23:12.507Z,54.00
2018-08-28T08:25:41.456Z,53.60
2018-08-28T08:28:10.148Z,52.50
2018-08-28T08:30:38.695Z,52.60
2018-08-28T08:33:07.291Z,52.50
2018-08-28T08:35:35.591Z,51.30
2018-08-28T08:38:04.198Z,50.70
2018-08-28T08:40:33.006Z,51.40
2018-08-28T08:43:01.488Z,52.20
2018-08-28T08:45:29.903Z,50.90
2018-08-28T08:47:58.542Z,51.80
2018-08-28T08:50:27.743Z,52.20
2018-08-28T08:52:56.131Z,51.90
2018-08-28T08:55:24.863Z,51.30
2018-08-28T08:57:53.550Z,50.80
2018-08-28T09:00:22.236Z,48.90
2018-08-28T09:02:51.027Z,46.70
2018-08-28T09:05:19.714Z,45.50
2018-08-28T09:07:48.046Z,44.80
2018-08-28T09:10:16.855Z,44.00
2018-08-28T09:12:45.266Z,44.50
2018-08-28T09:15:24.051Z,43.40
2018-08-28T09:17:52.349Z,43.00
2018-08-28T09:20:20.770Z,44.20
2018-08-28T09:22:49.191Z,42.60
2018-08-28T09:25:17.884Z,43.00
2018-08-28T09:27:46.486Z,43.70
2018-08-28T09:30:14.851Z,42.70
2018-08-28T09:32:43.195Z,43.70
2018-08-28T09:35:11.715Z,44.80
2018-08-28T09:37:40.052Z,44.60
2018-08-28T09:40:08.753Z,45.10
2018-08-28T09:42:37.378Z,44.10
2018-08-28T09:45:06.170Z,44.50
2018-08-28T09:47:34.466Z,44.00
2018-08-28T09:50:02.882Z,43.50
2018-08-28T09:52:31.294Z,42.20
2018-08-28T09:55:00.207Z,41.80
2018-08-28T09:57:28.994Z,42.40
2018-08-28T09:59:57.725Z,42.20
2018-08-28T10:02:26.463Z,41.30
2018-08-28T10:04:54.938Z,41.90
2018-08-28T10:07:23.198Z,42.60
2018-08-28T10:09:51.655Z,43.30
2018-08-28T10:12:20.015Z,40.80
2018-08-28T10:15:33.807Z,42.00
2018-08-28T10:18:02.202Z,41.60
2018-08-28T10:20:31.053Z,42.30
2018-08-28T10:22:59.820Z,41.90
2018-08-28T10:25:28.387Z,41.10
2018-08-28T10:27:56.779Z,41.80
2018-08-28T10:30:25.719Z,40.80
2018-08-28T10:32:54.124Z,40.60
2018-08-28T10:35:22.769Z,40.20
2018-08-28T10:37:51.440Z,40.60
2018-08-28T10:40:20.256Z,40.70
2018-08-28T10:42:48.807Z,39.80
2018-08-28T10:45:17.291Z,39.40
2018-08-28T10:47:45.744Z,40.30
2018-08-28T10:50:14.368Z,38.90
2018-08-28T10:52:42.808Z,39.70
2018-08-28T10:55:11.462Z,40.00
2018-08-28T10:57:40.112Z,36.90
2018-08-28T11:00:09.051Z,37.00
2018-08-28T11:02:37.733Z,36.60
2018-08-28T11:05:06.151Z,35.20
2018-08-28T11:07:34.526Z,31.50
2018-08-28T11:10:03.355Z,29.10
2018-08-28T11:12:31.931Z,29.20
2018-08-28T11:15:44.613Z,28.80
2018-08-28T11:18:12.936Z,28.40
2018-08-28T11:20:41.384Z,27.70
2018-08-28T11:23:09.861Z,26.20
2018-08-28T11:25:38.494Z,26.00
2018-08-28T11:28:06.882Z,25.80
2018-08-28T11:30:35.464Z,25.00
2018-08-28T11:33:04.091Z,25.10
2018-08-28T11:35:32.914Z,24.40
2018-08-28T11:38:01.270Z,23.50
2018-08-28T11:40:29.738Z,23.20
2018-08-28T11:42:58.028Z,23.90
2018-08-28T11:45:26.747Z,24.10
2018-08-28T11:47:55.188Z,22.60
2018-08-28T11:50:23.803Z,22.40
2018-08-28T11:52:52.249Z,21.80
2018-08-28T11:55:20.763Z,21.50
2018-08-28T11:57:49.159Z,21.70
2018-08-28T12:00:17.464Z,21.50
2018-08-28T12:02:46.363Z,21.70
2018-08-28T12:05:14.806Z,21.00
2018-08-28T12:07:43.272Z,21.00
2018-08-28T12:10:11.740Z,20.30
2018-08-28T12:12:40.263Z,20.50
2018-08-28T12:15:55.803Z,20.50
2018-08-28T12:18:24.178Z,21.10
2018-08-28T12:20:52.955Z,21.00
2018-08-28T12:23:21.539Z,20.30
2018-08-28T12:25:50.226Z,20.00
2018-08-28T12:28:18.692Z,19.80
2018-08-28T12:30:47.065Z,19.90
2018-08-28T12:33:15.778Z,20.00
2018-08-28T12:35:44.578Z,19.90
2018-08-28T12:38:13.120Z,20.20
2018-08-28T12:40:41.507Z,20.00
2018-08-28T12:43:10.155Z,20.10
2018-08-28T12:45:38.787Z,19.70
2018-08-28T12:48:07.239Z,19.10
2018-08-28T12:50:35.679Z,19.60
2018-08-28T12:53:04.027Z,19.60
2018-08-28T12:55:32.792Z,19.60
2018-08-28T12:58:01.480Z,18.80
2018-08-28T13:00:29.908Z,18.20
2018-08-28T13:02:58.229Z,19.10
2018-08-28T13:05:26.741Z,19.20
2018-08-28T13:07:55.605Z,19.00
2018-08-28T13:10:24.089Z,19.00
2018-08-28T13:12:52.443Z,18.60
2018-08-28T13:16:07.342Z,19.00
2018-08-28T13:18:35.723Z,19.60
2018-08-28T13:21:04.109Z,18.80
2018-08-28T13:23:32.766Z,18.40
2018-08-28T13:26:01.221Z,18.40
2018-08-28T13:28:29.383Z,18.30
2018-08-28T13:30:57.994Z,18.70
2018-08-28T13:33:26.796Z,19.10
2018-08-28T13:35:55.414Z,18.10
2018-08-28T13:38:24.110Z,18.80
2018-08-28T13:40:52.573Z,18.00
2018-08-28T13:43:20.991Z,17.90
2018-08-28T13:45:49.435Z,18.10
2018-08-28T13:48:17.891Z,18.10
2018-08-28T13:50:46.283Z,17.60
2018-08-28T13:53:14.751Z,17.50
2018-08-28T13:55:43.705Z,17.30
2018-08-28T13:58:12.364Z,17.90
2018-08-28T14:00:40.815Z,17.70
2018-08-28T14:03:09.127Z,18.10
2018-08-28T14:05:37.439Z,18.60
2018-08-28T14:08:05.884Z,18.50
2018-08-28T14:10:34.184Z,18.30
2018-08-28T14:13:02.552Z,17.90
2018-08-28T14:16:20.436Z,17.90
2018-08-28T14:18:49.047Z,18.20
2018-08-28T14:21:17.464Z,17.90
2018-08-28T14:23:46.035Z,17.60
2018-08-28T14:26:15.856Z,18.00
2018-08-28T14:28:44.231Z,18.00
2018-08-28T14:31:14.023Z,17.90
2018-08-28T14:33:42.464Z,17.90
2018-08-28T14:36:12.278Z,17.80
2018-08-28T14:38:40.890Z,18.20
2018-08-28T14:41:09.585Z,18.30
2018-08-28T14:43:38.252Z,18.50
2018-08-28T14:46:07.140Z,18.30
2018-08-28T14:48:35.886Z,18.20
2018-08-28T14:51:04.609Z,18.70
2018-08-28T14:53:33.271Z,18.50
2018-08-28T14:56:01.601Z,18.50
2018-08-28T14:58:29.972Z,18.80
2018-08-28T15:00:58.628Z,19.20
2018-08-28T15:03:27.015Z,19.10
2018-08-28T15:05:55.786Z,18.40
2018-08-28T15:08:24.398Z,18.40
2018-08-28T15:10:52.951Z,18.50
2018-08-28T15:13:21.711Z,18.60
2018-08-28T15:16:33.335Z,19.00
2018-08-28T15:19:01.867Z,19.10
2018-08-28T15:21:30.578Z,19.70
2018-08-28T15:23:59.228Z,20.10
2018-08-28T15:26:27.615Z,20.20
2018-08-28T15:28:56.019Z,20.60
2018-08-28T15:31:24.407Z,20.70
2018-08-28T15:33:53.036Z,21.20
2018-08-28T15:36:21.820Z,21.60
2018-08-28T15:38:50.219Z,21.90
2018-08-28T15:41:18.669Z,22.20
2018-08-28T15:43:47.388Z,22.50
2018-08-28T15:46:17.092Z,22.60
2018-08-28T15:48:45.383Z,22.60
2018-08-28T15:51:15.187Z,23.10
2018-08-28T15:53:43.540Z,23.30
2018-08-28T15:56:11.927Z,23.50
2018-08-28T15:58:40.474Z,23.80
2018-08-28T16:01:09.223Z,24.00
2018-08-28T16:03:37.832Z,24.40
2018-08-28T16:06:06.605Z,24.30
2018-08-28T16:08:35.044Z,24.30
2018-08-28T16:11:03.410Z,24.30
2018-08-28T16:13:32.153Z,24.80
2018-08-28T16:16:44.225Z,24.40
2018-08-28T16:19:12.791Z,24.80
2018-08-28T16:21:57.870Z,25.40
2018-08-28T16:24:26.610Z,25.50
2018-08-28T16:26:55.476Z,25.50
2018-08-28T16:29:23.880Z,25.70
2018-08-28T16:31:52.391Z,25.80
2018-08-28T16:34:20.748Z,26.10
2018-08-28T16:36:49.156Z,26.00
2018-08-28T16:39:17.514Z,26.50
2018-08-28T16:41:45.928Z,26.60
2018-08-28T16:44:14.305Z,26.50
2018-08-28T16:46:42.839Z,26.70
2018-08-28T16:49:11.250Z,26.50
2018-08-28T16:51:39.747Z,27.00
2018-08-28T16:54:08.280Z,27.30
2018-08-28T16:56:36.892Z,27.50
2018-08-28T16:59:05.582Z,27.40
2018-08-28T17:01:34.275Z,27.40
2018-08-28T17:04:02.736Z,27.60
2018-08-28T17:06:31.366Z,27.80
2018-08-28T17:08:59.834Z,27.70
2018-08-28T17:11:28.230Z,27.70
2018-08-28T17:13:56.710Z,27.90
2018-08-28T17:16:59.582Z,28.20
2018-08-28T17:19:28.044Z,28.20
2018-08-28T17:21:56.470Z,28.50
2018-08-28T17:24:25.235Z,28.50
2018-08-28T17:26:53.979Z,28.40
2018-08-28T17:29:22.940Z,28.70
2018-08-28T17:31:51.812Z,28.60
2018-08-28T17:34:20.200Z,28.70
2018-08-28T17:36:49.148Z,28.60
2018-08-28T17:39:17.955Z,28.70
2018-08-28T17:41:46.597Z,28.50
2018-08-28T17:44:15.439Z,28.50
2018-08-28T17:46:44.104Z,28.50
2018-08-28T17:49:13.822Z,28.40
2018-08-28T17:51:42.917Z,28.40
2018-08-28T17:54:11.747Z,28.70
2018-08-28T17:56:41.191Z,29.00
2018-08-28T17:59:10.462Z,29.60
2018-08-28T18:01:39.518Z,30.00
2018-08-28T18:04:09.235Z,30.30
2018-08-28T18:06:38.249Z,30.70
2018-08-28T18:09:07.591Z,31.00
2018-08-28T18:11:36.713Z,31.30
2018-08-28T18:14:06.982Z,31.40
2018-08-28T18:17:09.149Z,31.80
2018-08-28T18:19:38.540Z,32.00
2018-08-28T18:22:07.740Z,32.30
2018-08-28T18:24:37.787Z,31.60
2018-08-28T18:27:07.593Z,31.50
2018-08-28T18:29:37.435Z,31.80
2018-08-28T18:32:06.687Z,32.00
2018-08-28T18:34:36.078Z,31.80
2018-08-28T18:37:05.358Z,31.80
2018-08-28T18:39:35.590Z,31.90
2018-08-28T18:42:05.523Z,31.80
2018-08-28T18:44:35.587Z,31.90
2018-08-28T18:47:05.011Z,31.80
2018-08-28T18:49:34.717Z,31.50
2018-08-28T18:52:04.019Z,31.30
2018-08-28T18:54:33.500Z,31.90
2018-08-28T18:57:03.293Z,31.60
2018-08-28T18:59:33.184Z,31.40
2018-08-28T19:02:02.524Z,32.00
2018-08-28T19:04:31.967Z,32.10
2018-08-28T19:07:01.185Z,32.60
2018-08-28T19:09:31.000Z,32.70
2018-08-28T19:12:01.401Z,33.10
2018-08-28T19:15:03.897Z,33.00
2018-08-28T19:17:34.025Z,33.40
2018-08-28T19:20:03.911Z,33.90
2018-08-28T19:22:33.250Z,34.10
2018-08-28T19:25:02.458Z,33.90
2018-08-28T19:27:32.556Z,34.20
2018-08-28T19:30:01.773Z,34.50
2018-08-28T19:32:31.092Z,34.60
2018-08-28T19:35:01.196Z,35.80
2018-08-28T19:37:30.502Z,35.80
2018-08-28T19:39:59.834Z,35.50
2018-08-28T19:42:29.103Z,35.50
2018-08-28T19:44:58.388Z,36.00
2018-08-28T19:47:27.571Z,36.10
2018-08-28T19:49:56.868Z,36.10
2018-08-28T19:52:26.014Z,36.20
2018-08-28T19:54:55.336Z,36.50
2018-08-28T19:57:25.026Z,36.40
2018-08-28T19:59:54.253Z,36.90
2018-08-28T20:02:24.324Z,37.20
2018-08-28T20:04:53.608Z,36.80
2018-08-28T20:07:23.874Z,37.50
2018-08-28T20:09:53.966Z,38.00
2018-08-28T20:12:23.916Z,37.70
2018-08-28T20:15:23.470Z,37.90
2018-08-28T20:17:53.028Z,37.90
2018-08-28T20:20:23.414Z,38.00
2018-08-28T20:22:52.920Z,38.50
2018-08-28T20:25:44.114Z,38.70
2018-08-28T20:28:24.042Z,38.90
2018-08-28T20:30:53.232Z,39.00
2018-08-28T20:33:22.404Z,39.00
2018-08-28T20:35:52.328Z,39.10
2018-08-28T20:38:21.527Z,39.00
2018-08-28T20:40:50.696Z,39.10
2018-08-28T20:43:19.883Z,39.60
2018-08-28T20:45:49.091Z,39.60
2018-08-28T20:48:18.480Z,39.60
2018-08-28T20:50:47.628Z,39.20
2018-08-28T20:53:16.741Z,39.50
2018-08-28T20:55:45.851Z,39.70
2018-08-28T20:58:15.547Z,40.10
2018-08-28T21:00:45.671Z,40.30
2018-08-28T21:03:14.807Z,40.60
2018-08-28T21:05:44.368Z,40.70
2018-08-28T21:08:13.699Z,41.00
2018-08-28T21:10:42.779Z,41.00
2018-08-28T21:13:11.628Z,41.00
2018-08-28T21:19:11.895Z,41.20
2018-08-28T21:21:40.701Z,41.10
2018-08-28T21:24:09.080Z,41.00
2018-08-28T21:26:37.683Z,41.20
2018-08-28T21:29:06.209Z,41.30
2018-08-28T21:31:34.582Z,41.50
2018-08-28T21:34:03.167Z,41.40
2018-08-28T21:36:31.630Z,41.70
2018-08-28T21:38:59.999Z,41.70
2018-08-28T21:41:28.347Z,41.70
2018-08-28T21:43:57.035Z,42.10
2018-08-28T21:46:25.667Z,42.30
2018-08-28T21:48:54.367Z,43.00
2018-08-28T21:51:22.968Z,42.60
2018-08-28T21:53:51.811Z,42.50
2018-08-28T21:56:20.298Z,42.50
2018-08-28T21:58:48.667Z,42.50
2018-08-28T22:01:17.474Z,42.70
2018-08-28T22:03:46.142Z,42.80
2018-08-28T22:06:20.120Z,42.80
2018-08-28T22:08:48.838Z,42.90
2018-08-28T22:11:18.989Z,42.90
2018-08-28T22:13:47.461Z,43.00
2018-08-28T22:16:17.231Z,42.90
2018-08-28T22:18:45.964Z,43.00
2018-08-28T22:21:15.927Z,43.00
2018-08-28T22:23:44.390Z,43.00
2018-08-28T22:26:13.228Z,43.20
2018-08-28T22:28:41.665Z,43.30
2018-08-28T22:31:10.319Z,43.60
2018-08-28T22:33:39.113Z,43.50
2018-08-28T22:36:07.938Z,43.80
2018-08-28T22:38:36.795Z,43.70
2018-08-28T22:41:05.221Z,43.90
2018-08-28T22:43:33.494Z,43.80
2018-08-28T22:46:01.783Z,44.00
2018-08-28T22:48:30.415Z,44.00
2018-08-28T22:50:58.900Z,44.10
2018-08-28T22:53:27.635Z,44.10
2018-08-28T22:55:56.222Z,44.00
2018-08-28T22:58:24.798Z,44.00
2018-08-28T23:00:53.093Z,44.20
2018-08-28T23:03:21.547Z,44.60
2018-08-28T23:05:50.324Z,44.70
2018-08-28T23:08:18.791Z,44.80
2018-08-28T23:10:47.094Z,44.80
2018-08-28T23:13:15.870Z,44.70
2018-08-28T23:15:44.672Z,44.90
2018-08-28T23:18:13.136Z,45.20
2018-08-28T23:20:41.579Z,45.40
2018-08-28T23:23:10.410Z,45.30
2018-08-28T23:25:38.835Z,45.70
2018-08-28T23:28:07.320Z,45.80
2018-08-28T23:30:35.680Z,45.70
2018-08-28T23:33:04.195Z,45.60
2018-08-28T23:35:32.928Z,45.60
2018-08-28T23:38:01.379Z,45.60
2018-08-28T23:40:30.041Z,45.90
2018-08-28T23:42:58.431Z,46.00
2018-08-28T23:45:26.732Z,46.10
2018-08-28T23:47:55.311Z,46.10
2018-08-28T23:50:23.830Z,46.10
2018-08-28T23:52:52.671Z,46.00
2018-08-28T23:55:21.187Z,46.20
2018-08-28T23:57:49.915Z,46.20
